Terminal Aerodrome Forecast
Issued by NWS

Home | Current Version | Previous Version | Text Only | Print | Product List | Glossary On
Versions: 1 2 3 4 5 6 7 8 9 10 11 12 13 14 15 16 17 18 19 20
668
FTUS43 KBIS 072331
TAFJMS
TAF
KJMS 072331Z 0800/0824 31029G43KT 1/2SM -SN BLSN VV012
     FM080200 31026G36KT 1SM -SN BLSN BKN015
     FM080600 31020G29KT P6SM VCSH OVC020
     FM082300 31012KT P6SM BKN040=

USA.gov is the U.S. government's official web portal to all federal, state and local government web resources and services.